sensor_id;sensor_type;location;lat;lon;timestamp;pressure;altitude;pressure_sealevel;temperature;humidity
37904;BME280;23738;50.422;18.758;2023-07-16T00:00:11;98219.64;;;21.22;64.54
37904;BME280;23738;50.422;18.758;2023-07-16T00:02:41;98217.29;;;21.18;64.80
37904;BME280;23738;50.422;18.758;2023-07-16T00:05:11;98219.36;;;21.15;64.94
37904;BME280;23738;50.422;18.758;2023-07-16T00:07:40;98211.44;;;21.09;64.90
37904;BME280;23738;50.422;18.758;2023-07-16T00:10:11;98211.03;;;21.03;65.06
37904;BME280;23738;50.422;18.758;2023-07-16T00:12:40;98204.21;;;21.00;65.16
37904;BME280;23738;50.422;18.758;2023-07-16T00:15:11;98200.05;;;20.98;65.41
37904;BME280;23738;50.422;18.758;2023-07-16T00:17:40;98202.91;;;20.97;65.60
37904;BME280;23738;50.422;18.758;2023-07-16T00:20:11;98201.63;;;20.95;65.83
37904;BME280;23738;50.422;18.758;2023-07-16T00:22:40;98198.92;;;20.92;65.84
37904;BME280;23738;50.422;18.758;2023-07-16T00:25:10;98196.86;;;20.89;65.94
37904;BME280;23738;50.422;18.758;2023-07-16T00:27:40;98199.11;;;20.86;65.95
37904;BME280;23738;50.422;18.758;2023-07-16T00:30:10;98198.31;;;20.85;66.08
37904;BME280;23738;50.422;18.758;2023-07-16T00:32:40;98200.98;;;20.84;66.18
37904;BME280;23738;50.422;18.758;2023-07-16T00:35:10;98197.70;;;20.82;66.38
37904;BME280;23738;50.422;18.758;2023-07-16T00:37:39;98197.37;;;20.79;66.41
37904;BME280;23738;50.422;18.758;2023-07-16T00:40:10;98199.85;;;20.75;66.63
37904;BME280;23738;50.422;18.758;2023-07-16T00:42:39;98196.10;;;20.70;66.53
37904;BME280;23738;50.422;18.758;2023-07-16T00:45:11;98195.21;;;20.66;66.64
37904;BME280;23738;50.422;18.758;2023-07-16T00:47:42;98195.33;;;20.63;66.88
37904;BME280;23738;50.422;18.758;2023-07-16T00:50:13;98194.31;;;20.60;66.87
37904;BME280;23738;50.422;18.758;2023-07-16T00:52:42;98191.95;;;20.57;66.99
37904;BME280;23738;50.422;18.758;2023-07-16T00:55:12;98194.48;;;20.52;67.03
37904;BME280;23738;50.422;18.758;2023-07-16T00:57:41;98195.56;;;20.46;67.07
37904;BME280;23738;50.422;18.758;2023-07-16T01:00:13;98191.77;;;20.40;67.02
37904;BME280;23738;50.422;18.758;2023-07-16T01:02:42;98193.28;;;20.35;67.17
37904;BME280;23738;50.422;18.758;2023-07-16T01:05:11;98192.94;;;20.32;67.30
37904;BME280;23738;50.422;18.758;2023-07-16T01:07:46;98192.45;;;20.29;67.43
37904;BME280;23738;50.422;18.758;2023-07-16T01:10:23;98187.36;;;20.24;67.34
37904;BME280;23738;50.422;18.758;2023-07-16T01:12:56;98183.28;;;20.20;67.46
37904;BME280;23738;50.422;18.758;2023-07-16T01:15:26;98179.33;;;20.15;67.48
37904;BME280;23738;50.422;18.758;2023-07-16T01:17:56;98180.23;;;20.09;67.63
37904;BME280;23738;50.422;18.758;2023-07-16T01:20:25;98176.97;;;20.04;67.74
37904;BME280;23738;50.422;18.758;2023-07-16T01:23:08;98178.42;;;20.01;67.89
37904;BME280;23738;50.422;18.758;2023-07-16T01:26:05;98170.74;;;19.97;67.93
37904;BME280;23738;50.422;18.758;2023-07-16T01:28:48;98169.95;;;19.92;67.94
37904;BME280;23738;50.422;18.758;2023-07-16T01:31:22;98167.10;;;19.87;68.10
37904;BME280;23738;50.422;18.758;2023-07-16T01:33:53;98163.73;;;19.81;68.06
37904;BME280;23738;50.422;18.758;2023-07-16T01:36:24;98172.14;;;19.77;68.10
37904;BME280;23738;50.422;18.758;2023-07-16T01:38:54;98174.81;;;19.73;68.31
37904;BME280;23738;50.422;18.758;2023-07-16T01:41:24;98176.55;;;19.70;68.41
37904;BME280;23738;50.422;18.758;2023-07-16T01:43:53;98176.38;;;19.67;68.48
37904;BME280;23738;50.422;18.758;2023-07-16T01:46:23;98179.84;;;19.64;68.54
37904;BME280;23738;50.422;18.758;2023-07-16T01:48:52;98179.79;;;19.59;68.57
37904;BME280;23738;50.422;18.758;2023-07-16T01:51:22;98177.96;;;19.54;68.71
37904;BME280;23738;50.422;18.758;2023-07-16T01:53:51;98179.40;;;19.51;68.78
37904;BME280;23738;50.422;18.758;2023-07-16T01:56:20;98176.48;;;19.48;68.84
37904;BME280;23738;50.422;18.758;2023-07-16T01:58:50;98174.63;;;19.48;69.12
37904;BME280;23738;50.422;18.758;2023-07-16T02:01:19;98174.77;;;19.47;69.40
37904;BME280;23738;50.422;18.758;2023-07-16T02:03:50;98175.48;;;19.48;69.49
37904;BME280;23738;50.422;18.758;2023-07-16T02:06:19;98174.82;;;19.46;69.60
37904;BME280;23738;50.422;18.758;2023-07-16T02:08:48;98170.73;;;19.42;69.52
37904;BME280;23738;50.422;18.758;2023-07-16T02:11:17;98169.83;;;19.39;69.67
37904;BME280;23738;50.422;18.758;2023-07-16T02:13:47;98174.53;;;19.38;69.78
37904;BME280;23738;50.422;18.758;2023-07-16T02:16:16;98172.54;;;19.37;69.83
37904;BME280;23738;50.422;18.758;2023-07-16T02:18:45;98170.39;;;19.35;69.99
37904;BME280;23738;50.422;18.758;2023-07-16T02:21:15;98168.23;;;19.33;70.02
37904;BME280;23738;50.422;18.758;2023-07-16T02:23:44;98169.04;;;19.30;70.19
37904;BME280;23738;50.422;18.758;2023-07-16T02:26:13;98167.12;;;19.29;70.29
37904;BME280;23738;50.422;18.758;2023-07-16T02:28:43;98167.27;;;19.29;70.37
37904;BME280;23738;50.422;18.758;2023-07-16T02:31:12;98165.52;;;19.30;70.57
37904;BME280;23738;50.422;18.758;2023-07-16T02:33:41;98167.17;;;19.31;70.74
37904;BME280;23738;50.422;18.758;2023-07-16T02:36:10;98171.89;;;19.30;70.75
37904;BME280;23738;50.422;18.758;2023-07-16T02:38:40;98171.45;;;19.29;70.76
37904;BME280;23738;50.422;18.758;2023-07-16T02:41:09;98171.76;;;19.26;70.89
37904;BME280;23738;50.422;18.758;2023-07-16T02:43:39;98173.66;;;19.24;70.92
37904;BME280;23738;50.422;18.758;2023-07-16T02:46:08;98173.77;;;19.24;70.91
37904;BME280;23738;50.422;18.758;2023-07-16T02:48:37;98169.65;;;19.24;71.06
37904;BME280;23738;50.422;18.758;2023-07-16T02:51:06;98173.13;;;19.24;71.16
37904;BME280;23738;50.422;18.758;2023-07-16T02:53:36;98171.42;;;19.22;71.25
37904;BME280;23738;50.422;18.758;2023-07-16T02:56:05;98169.91;;;19.19;71.26
37904;BME280;23738;50.422;18.758;2023-07-16T02:58:34;98169.52;;;19.17;71.39
37904;BME280;23738;50.422;18.758;2023-07-16T03:01:04;98170.77;;;19.17;71.39
37904;BME280;23738;50.422;18.758;2023-07-16T03:03:33;98176.01;;;19.18;71.58
37904;BME280;23738;50.422;18.758;2023-07-16T03:06:03;98172.92;;;19.20;71.72
37904;BME280;23738;50.422;18.758;2023-07-16T03:08:32;98176.41;;;19.22;71.89
37904;BME280;23738;50.422;18.758;2023-07-16T03:11:02;98177.42;;;19.23;71.96
37904;BME280;23738;50.422;18.758;2023-07-16T03:13:32;98177.21;;;19.24;72.04
37904;BME280;23738;50.422;18.758;2023-07-16T03:16:01;98173.89;;;19.25;72.16
37904;BME280;23738;50.422;18.758;2023-07-16T03:18:31;98168.98;;;19.29;72.39
37904;BME280;23738;50.422;18.758;2023-07-16T03:21:00;98175.41;;;19.34;72.37
37904;BME280;23738;50.422;18.758;2023-07-16T03:23:29;98174.58;;;19.38;72.52
37904;BME280;23738;50.422;18.758;2023-07-16T03:25:59;98177.20;;;19.40;72.66
37904;BME280;23738;50.422;18.758;2023-07-16T03:28:28;98174.73;;;19.42;72.66
37904;BME280;23738;50.422;18.758;2023-07-16T03:30:57;98174.42;;;19.42;72.72
37904;BME280;23738;50.422;18.758;2023-07-16T03:33:27;98177.70;;;19.44;72.90
37904;BME280;23738;50.422;18.758;2023-07-16T03:35:56;98181.46;;;19.48;72.86
37904;BME280;23738;50.422;18.758;2023-07-16T03:38:25;98181.29;;;19.53;73.06
37904;BME280;23738;50.422;18.758;2023-07-16T03:40:55;98182.46;;;19.58;73.12
37904;BME280;23738;50.422;18.758;2023-07-16T03:43:24;98183.33;;;19.63;73.32
37904;BME280;23738;50.422;18.758;2023-07-16T03:45:53;98184.73;;;19.67;73.17
37904;BME280;23738;50.422;18.758;2023-07-16T03:48:22;98180.50;;;19.70;73.22
37904;BME280;23738;50.422;18.758;2023-07-16T03:50:52;98186.77;;;19.74;73.18
37904;BME280;23738;50.422;18.758;2023-07-16T03:53:21;98183.02;;;19.76;73.33
37904;BME280;23738;50.422;18.758;2023-07-16T03:55:51;98191.55;;;19.84;73.39
37904;BME280;23738;50.422;18.758;2023-07-16T03:58:20;98187.20;;;19.91;73.49
37904;BME280;23738;50.422;18.758;2023-07-16T04:00:51;98190.16;;;19.98;73.55
37904;BME280;23738;50.422;18.758;2023-07-16T04:03:20;98187.42;;;20.06;73.47
37904;BME280;23738;50.422;18.758;2023-07-16T04:05:50;98188.93;;;20.13;73.66
37904;BME280;23738;50.422;18.758;2023-07-16T04:08:19;98192.03;;;20.22;73.62
37904;BME280;23738;50.422;18.758;2023-07-16T04:10:49;98197.66;;;20.34;73.66
37904;BME280;23738;50.422;18.758;2023-07-16T04:13:18;98197.56;;;20.47;73.64
37904;BME280;23738;50.422;18.758;2023-07-16T04:15:47;98201.77;;;20.60;73.78
37904;BME280;23738;50.422;18.758;2023-07-16T04:18:17;98204.80;;;20.74;73.55
37904;BME280;23738;50.422;18.758;2023-07-16T04:20:46;98204.16;;;20.87;73.61
37904;BME280;23738;50.422;18.758;2023-07-16T04:23:15;98202.77;;;21.00;73.38
37904;BME280;23738;50.422;18.758;2023-07-16T04:25:45;98204.71;;;21.12;73.46
37904;BME280;23738;50.422;18.758;2023-07-16T04:28:14;98207.65;;;21.24;73.46
37904;BME280;23738;50.422;18.758;2023-07-16T04:30:43;98213.15;;;21.39;73.32
37904;BME280;23738;50.422;18.758;2023-07-16T04:33:13;98213.23;;;21.55;73.19
37904;BME280;23738;50.422;18.758;2023-07-16T04:35:42;98213.63;;;21.69;72.99
37904;BME280;23738;50.422;18.758;2023-07-16T04:38:11;98217.89;;;21.84;72.90
37904;BME280;23738;50.422;18.758;2023-07-16T04:40:42;98224.89;;;21.99;72.77
37904;BME280;23738;50.422;18.758;2023-07-16T04:43:12;98225.30;;;22.17;72.58
37904;BME280;23738;50.422;18.758;2023-07-16T04:45:42;98222.99;;;22.35;72.53
37904;BME280;23738;50.422;18.758;2023-07-16T04:48:14;98230.06;;;22.57;72.37
37904;BME280;23738;50.422;18.758;2023-07-16T04:50:44;98228.14;;;22.79;72.13
37904;BME280;23738;50.422;18.758;2023-07-16T04:53:13;98229.38;;;22.99;71.95
37904;BME280;23738;50.422;18.758;2023-07-16T04:55:45;98220.69;;;23.18;71.72
37904;BME280;23738;50.422;18.758;2023-07-16T04:58:15;98225.90;;;23.40;71.28
37904;BME280;23738;50.422;18.758;2023-07-16T05:00:45;98232.16;;;23.58;71.07
37904;BME280;23738;50.422;18.758;2023-07-16T05:03:14;98231.96;;;23.76;70.61
37904;BME280;23738;50.422;18.758;2023-07-16T05:05:44;98233.05;;;23.93;69.94
37904;BME280;23738;50.422;18.758;2023-07-16T05:08:13;98232.26;;;24.10;69.55
37904;BME280;23738;50.422;18.758;2023-07-16T05:10:43;98236.21;;;24.27;69.42
37904;BME280;23738;50.422;18.758;2023-07-16T05:13:12;98241.36;;;24.45;69.14
37904;BME280;23738;50.422;18.758;2023-07-16T05:15:44;98245.13;;;24.64;68.78
37904;BME280;23738;50.422;18.758;2023-07-16T05:18:14;98246.45;;;24.83;68.45
37904;BME280;23738;50.422;18.758;2023-07-16T05:20:46;98245.42;;;25.00;67.62
37904;BME280;23738;50.422;18.758;2023-07-16T05:23:15;98251.27;;;25.16;67.53
37904;BME280;23738;50.422;18.758;2023-07-16T05:25:48;98254.98;;;25.32;67.21
37904;BME280;23738;50.422;18.758;2023-07-16T05:28:19;98262.81;;;25.48;66.87
37904;BME280;23738;50.422;18.758;2023-07-16T05:30:56;98268.24;;;25.64;66.44
37904;BME280;23738;50.422;18.758;2023-07-16T05:33:26;98272.69;;;25.78;65.95
37904;BME280;23738;50.422;18.758;2023-07-16T05:35:55;98281.34;;;25.91;65.58
37904;BME280;23738;50.422;18.758;2023-07-16T05:38:25;98291.01;;;26.09;65.41
37904;BME280;23738;50.422;18.758;2023-07-16T05:40:54;98297.25;;;26.27;64.82
37904;BME280;23738;50.422;18.758;2023-07-16T05:43:28;98294.09;;;26.42;64.50
37904;BME280;23738;50.422;18.758;2023-07-16T05:45:58;98302.14;;;26.60;64.42
37904;BME280;23738;50.422;18.758;2023-07-16T05:48:27;98303.96;;;26.80;64.14
37904;BME280;23738;50.422;18.758;2023-07-16T05:50:56;98312.19;;;26.94;63.89
37904;BME280;23738;50.422;18.758;2023-07-16T05:53:26;98328.64;;;27.12;63.53
37904;BME280;23738;50.422;18.758;2023-07-16T05:55:55;98341.50;;;27.27;62.72
37904;BME280;23738;50.422;18.758;2023-07-16T05:58:24;98356.90;;;27.41;62.22
37904;BME280;23738;50.422;18.758;2023-07-16T06:00:54;98366.89;;;27.54;61.86
37904;BME280;23738;50.422;18.758;2023-07-16T06:03:23;98381.73;;;27.68;61.41
37904;BME280;23738;50.422;18.758;2023-07-16T06:05:52;98391.35;;;27.83;61.51
37904;BME280;23738;50.422;18.758;2023-07-16T06:08:22;98396.76;;;27.99;60.74
37904;BME280;23738;50.422;18.758;2023-07-16T06:10:52;98400.21;;;28.13;60.40
37904;BME280;23738;50.422;18.758;2023-07-16T06:13:22;98396.61;;;28.23;59.92
37904;BME280;23738;50.422;18.758;2023-07-16T06:15:51;98406.99;;;28.25;59.71
37904;BME280;23738;50.422;18.758;2023-07-16T06:18:21;98409.25;;;28.20;59.84
37904;BME280;23738;50.422;18.758;2023-07-16T06:20:51;98407.07;;;28.12;59.36
37904;BME280;23738;50.422;18.758;2023-07-16T06:23:22;98407.23;;;28.10;59.55
37904;BME280;23738;50.422;18.758;2023-07-16T06:25:56;98404.73;;;28.24;59.24
37904;BME280;23738;50.422;18.758;2023-07-16T06:28:26;98407.33;;;28.42;59.23
37904;BME280;23738;50.422;18.758;2023-07-16T06:30:55;98409.60;;;28.59;58.64
37904;BME280;23738;50.422;18.758;2023-07-16T06:33:24;98411.77;;;28.76;58.63
37904;BME280;23738;50.422;18.758;2023-07-16T06:35:55;98412.29;;;28.91;58.65
37904;BME280;23738;50.422;18.758;2023-07-16T06:38:24;98414.41;;;29.03;57.99
37904;BME280;23738;50.422;18.758;2023-07-16T06:40:54;98418.02;;;29.13;57.47
37904;BME280;23738;50.422;18.758;2023-07-16T06:43:24;98417.77;;;29.21;57.22
37904;BME280;23738;50.422;18.758;2023-07-16T06:45:53;98416.37;;;29.36;57.58
37904;BME280;23738;50.422;18.758;2023-07-16T06:48:23;98410.95;;;29.52;57.47
37904;BME280;23738;50.422;18.758;2023-07-16T06:50:52;98416.30;;;29.65;56.72
37904;BME280;23738;50.422;18.758;2023-07-16T06:53:21;98417.16;;;29.74;56.53
37904;BME280;23738;50.422;18.758;2023-07-16T06:55:51;98416.54;;;29.85;55.89
37904;BME280;23738;50.422;18.758;2023-07-16T06:58:23;98420.73;;;29.96;55.63
37904;BME280;23738;50.422;18.758;2023-07-16T07:01:00;98422.90;;;30.03;55.26
37904;BME280;23738;50.422;18.758;2023-07-16T07:03:29;98427.91;;;30.14;55.65
37904;BME280;23738;50.422;18.758;2023-07-16T07:06:03;98426.39;;;30.25;55.80
37904;BME280;23738;50.422;18.758;2023-07-16T07:08:32;98431.34;;;30.34;55.49
37904;BME280;23738;50.422;18.758;2023-07-16T07:11:02;98441.70;;;30.39;55.03
37904;BME280;23738;50.422;18.758;2023-07-16T07:13:31;98435.29;;;30.22;54.88
37904;BME280;23738;50.422;18.758;2023-07-16T07:16:00;98432.30;;;30.01;54.74
37904;BME280;23738;50.422;18.758;2023-07-16T07:18:29;98427.52;;;29.93;54.79
37904;BME280;23738;50.422;18.758;2023-07-16T07:20:59;98421.64;;;30.07;54.26
37904;BME280;23738;50.422;18.758;2023-07-16T07:23:28;98423.86;;;30.20;54.38
37904;BME280;23738;50.422;18.758;2023-07-16T07:25:57;98430.64;;;30.36;54.20
37904;BME280;23738;50.422;18.758;2023-07-16T07:28:28;98426.95;;;30.27;54.23
37904;BME280;23738;50.422;18.758;2023-07-16T07:30:57;98428.94;;;30.41;54.18
37904;BME280;23738;50.422;18.758;2023-07-16T07:33:27;98424.67;;;30.65;54.33
37904;BME280;23738;50.422;18.758;2023-07-16T07:35:56;98428.11;;;30.80;53.69
37904;BME280;23738;50.422;18.758;2023-07-16T07:38:25;98427.98;;;30.78;53.09
37904;BME280;23738;50.422;18.758;2023-07-16T07:40:54;98427.39;;;30.97;53.54
37904;BME280;23738;50.422;18.758;2023-07-16T07:43:24;98431.39;;;31.12;52.89
37904;BME280;23738;50.422;18.758;2023-07-16T07:45:53;98428.70;;;31.05;53.18
37904;BME280;23738;50.422;18.758;2023-07-16T07:48:23;98431.50;;;31.18;53.08
37904;BME280;23738;50.422;18.758;2023-07-16T07:50:52;98436.71;;;31.40;53.18
37904;BME280;23738;50.422;18.758;2023-07-16T07:53:22;98441.87;;;31.61;52.97
37904;BME280;23738;50.422;18.758;2023-07-16T07:55:51;98445.56;;;31.63;52.61
37904;BME280;23738;50.422;18.758;2023-07-16T07:58:21;98443.48;;;31.69;51.82
37904;BME280;23738;50.422;18.758;2023-07-16T08:00:50;98435.15;;;31.82;52.49
37904;BME280;23738;50.422;18.758;2023-07-16T08:03:20;98433.90;;;32.01;52.13
37904;BME280;23738;50.422;18.758;2023-07-16T08:05:52;98432.86;;;32.14;51.48
37904;BME280;23738;50.422;18.758;2023-07-16T08:08:22;98431.11;;;32.26;51.74
37904;BME280;23738;50.422;18.758;2023-07-16T08:10:51;98431.63;;;32.43;51.41
37904;BME280;23738;50.422;18.758;2023-07-16T08:13:20;98428.98;;;32.53;51.41
37904;BME280;23738;50.422;18.758;2023-07-16T08:15:50;98431.33;;;32.61;51.30
37904;BME280;23738;50.422;18.758;2023-07-16T08:18:19;98429.15;;;32.75;51.43
37904;BME280;23738;50.422;18.758;2023-07-16T08:20:49;98427.41;;;32.88;50.91
37904;BME280;23738;50.422;18.758;2023-07-16T08:23:18;98427.95;;;33.02;50.24
37904;BME280;23738;50.422;18.758;2023-07-16T08:25:47;98428.69;;;33.15;50.23
37904;BME280;23738;50.422;18.758;2023-07-16T08:28:18;98426.72;;;33.30;50.26
37904;BME280;23738;50.422;18.758;2023-07-16T08:30:49;98424.02;;;33.40;49.85
37904;BME280;23738;50.422;18.758;2023-07-16T08:33:18;98427.32;;;33.54;49.69
37904;BME280;23738;50.422;18.758;2023-07-16T08:35:48;98429.94;;;33.67;49.22
37904;BME280;23738;50.422;18.758;2023-07-16T08:38:17;98429.41;;;33.80;48.44
37904;BME280;23738;50.422;18.758;2023-07-16T08:40:48;98431.80;;;33.89;48.33
37904;BME280;23738;50.422;18.758;2023-07-16T08:43:17;98430.88;;;33.99;47.92
37904;BME280;23738;50.422;18.758;2023-07-16T08:45:50;98431.80;;;33.98;47.23
37904;BME280;23738;50.422;18.758;2023-07-16T08:48:20;98434.21;;;34.01;46.97
37904;BME280;23738;50.422;18.758;2023-07-16T08:50:50;98434.59;;;34.07;46.71
37904;BME280;23738;50.422;18.758;2023-07-16T08:53:20;98428.23;;;34.20;46.87
37904;BME280;23738;50.422;18.758;2023-07-16T08:55:49;98429.02;;;34.30;46.63
37904;BME280;23738;50.422;18.758;2023-07-16T08:58:19;98426.48;;;34.35;46.33
37904;BME280;23738;50.422;18.758;2023-07-16T09:00:49;98433.95;;;34.40;45.83
37904;BME280;23738;50.422;18.758;2023-07-16T09:03:19;98437.79;;;34.43;45.58
37904;BME280;23738;50.422;18.758;2023-07-16T09:05:48;98438.27;;;34.47;45.29
37904;BME280;23738;50.422;18.758;2023-07-16T09:08:18;98437.48;;;34.55;45.40
37904;BME280;23738;50.422;18.758;2023-07-16T09:10:54;98435.08;;;34.70;45.16
37904;BME280;23738;50.422;18.758;2023-07-16T09:13:24;98436.24;;;34.74;45.05
37904;BME280;23738;50.422;18.758;2023-07-16T09:15:55;98433.98;;;34.84;44.69
37904;BME280;23738;50.422;18.758;2023-07-16T09:18:26;98431.77;;;35.05;44.56
37904;BME280;23738;50.422;18.758;2023-07-16T09:21:00;98431.58;;;35.07;44.05
37904;BME280;23738;50.422;18.758;2023-07-16T09:23:32;98429.30;;;34.90;43.94
37904;BME280;23738;50.422;18.758;2023-07-16T09:26:01;98427.77;;;34.84;44.01
37904;BME280;23738;50.422;18.758;2023-07-16T09:28:31;98424.63;;;34.80;43.87
37904;BME280;23738;50.422;18.758;2023-07-16T09:31:06;98423.23;;;34.88;43.17
37904;BME280;23738;50.422;18.758;2023-07-16T09:33:36;98426.41;;;35.07;43.42
37904;BME280;23738;50.422;18.758;2023-07-16T09:36:06;98433.05;;;35.17;43.37
37904;BME280;23738;50.422;18.758;2023-07-16T09:38:36;98434.42;;;35.20;42.91
37904;BME280;23738;50.422;18.758;2023-07-16T09:41:07;98438.25;;;34.99;42.74
37904;BME280;23738;50.422;18.758;2023-07-16T09:43:36;98440.42;;;34.64;42.71
37904;BME280;23738;50.422;18.758;2023-07-16T09:46:06;98447.05;;;34.34;42.90
37904;BME280;23738;50.422;18.758;2023-07-16T09:48:35;98446.83;;;34.05;42.68
37904;BME280;23738;50.422;18.758;2023-07-16T09:51:05;98448.64;;;33.92;43.03
37904;BME280;23738;50.422;18.758;2023-07-16T09:53:37;98443.87;;;33.82;42.98
37904;BME280;23738;50.422;18.758;2023-07-16T09:56:10;98449.34;;;33.76;43.15
37904;BME280;23738;50.422;18.758;2023-07-16T09:58:41;98453.77;;;33.66;43.14
37904;BME280;23738;50.422;18.758;2023-07-16T10:01:11;98455.85;;;33.71;42.99
37904;BME280;23738;50.422;18.758;2023-07-16T10:03:50;98455.81;;;33.69;42.95
37904;BME280;23738;50.422;18.758;2023-07-16T10:06:20;98458.14;;;33.57;42.87
37904;BME280;23738;50.422;18.758;2023-07-16T10:08:51;98458.35;;;33.62;43.07
37904;BME280;23738;50.422;18.758;2023-07-16T10:11:21;98455.41;;;33.81;42.80
37904;BME280;23738;50.422;18.758;2023-07-16T10:13:53;98453.10;;;33.86;42.81
37904;BME280;23738;50.422;18.758;2023-07-16T10:16:23;98454.42;;;34.01;43.11
37904;BME280;23738;50.422;18.758;2023-07-16T10:18:57;98455.61;;;34.29;42.82
37904;BME280;23738;50.422;18.758;2023-07-16T10:21:28;98455.09;;;34.54;42.89
37904;BME280;23738;50.422;18.758;2023-07-16T10:24:15;98453.05;;;34.79;42.57
37904;BME280;23738;50.422;18.758;2023-07-16T10:26:46;98454.94;;;34.91;42.13
37904;BME280;23738;50.422;18.758;2023-07-16T10:29:16;98456.78;;;34.97;41.71
37904;BME280;23738;50.422;18.758;2023-07-16T10:31:46;98457.00;;;35.03;41.61
37904;BME280;23738;50.422;18.758;2023-07-16T10:34:16;98459.70;;;35.13;41.29
37904;BME280;23738;50.422;18.758;2023-07-16T10:36:45;98459.58;;;35.22;41.17
37904;BME280;23738;50.422;18.758;2023-07-16T10:39:16;98458.05;;;35.32;41.08
37904;BME280;23738;50.422;18.758;2023-07-16T10:41:45;98458.08;;;35.47;41.09
37904;BME280;23738;50.422;18.758;2023-07-16T10:44:15;98461.25;;;35.53;40.46
37904;BME280;23738;50.422;18.758;2023-07-16T10:46:45;98460.38;;;35.61;40.54
37904;BME280;23738;50.422;18.758;2023-07-16T10:49:14;98463.95;;;35.63;40.41
37904;BME280;23738;50.422;18.758;2023-07-16T10:51:43;98459.67;;;35.75;40.51
37904;BME280;23738;50.422;18.758;2023-07-16T10:54:13;98457.92;;;35.92;40.37
37904;BME280;23738;50.422;18.758;2023-07-16T10:56:42;98456.14;;;36.03;40.05
37904;BME280;23738;50.422;18.758;2023-07-16T10:59:12;98453.16;;;36.14;39.87
37904;BME280;23738;50.422;18.758;2023-07-16T11:01:42;98450.09;;;36.22;39.46
37904;BME280;23738;50.422;18.758;2023-07-16T11:04:12;98443.64;;;36.32;39.64
37904;BME280;23738;50.422;18.758;2023-07-16T11:06:41;98438.23;;;36.38;39.08
37904;BME280;23738;50.422;18.758;2023-07-16T11:09:11;98430.61;;;36.40;38.67
37904;BME280;23738;50.422;18.758;2023-07-16T11:11:41;98434.31;;;36.28;38.44
37904;BME280;23738;50.422;18.758;2023-07-16T11:14:10;98434.45;;;36.18;38.75
37904;BME280;23738;50.422;18.758;2023-07-16T11:16:40;98427.45;;;36.26;38.81
37904;BME280;23738;50.422;18.758;2023-07-16T11:19:09;98428.98;;;36.34;38.49
37904;BME280;23738;50.422;18.758;2023-07-16T11:21:38;98429.13;;;36.39;38.72
37904;BME280;23738;50.422;18.758;2023-07-16T11:24:12;98431.11;;;36.52;38.94
37904;BME280;23738;50.422;18.758;2023-07-16T11:26:51;98428.67;;;36.76;39.04
37904;BME280;23738;50.422;18.758;2023-07-16T11:29:20;98428.77;;;36.91;38.73
37904;BME280;23738;50.422;18.758;2023-07-16T11:31:52;98426.95;;;36.97;38.61
37904;BME280;23738;50.422;18.758;2023-07-16T11:34:24;98424.80;;;36.88;38.10
37904;BME280;23738;50.422;18.758;2023-07-16T11:36:53;98425.38;;;36.90;38.25
37904;BME280;23738;50.422;18.758;2023-07-16T11:39:25;98429.73;;;36.99;38.08
37904;BME280;23738;50.422;18.758;2023-07-16T11:41:57;98432.27;;;37.08;37.75
37904;BME280;23738;50.422;18.758;2023-07-16T11:44:33;98431.52;;;37.10;37.22
37904;BME280;23738;50.422;18.758;2023-07-16T11:47:04;98430.30;;;37.01;36.59
37904;BME280;23738;50.422;18.758;2023-07-16T11:49:33;98427.48;;;36.94;36.69
37904;BME280;23738;50.422;18.758;2023-07-16T11:52:03;98424.60;;;36.97;36.97
37904;BME280;23738;50.422;18.758;2023-07-16T11:54:32;98417.98;;;37.03;36.57
37904;BME280;23738;50.422;18.758;2023-07-16T11:57:02;98417.14;;;37.07;36.36
37904;BME280;23738;50.422;18.758;2023-07-16T11:59:31;98415.38;;;37.09;36.41
37904;BME280;23738;50.422;18.758;2023-07-16T12:02:01;98410.90;;;37.09;36.48
37904;BME280;23738;50.422;18.758;2023-07-16T12:04:31;98407.14;;;37.04;36.09
37904;BME280;23738;50.422;18.758;2023-07-16T12:07:00;98397.81;;;37.00;36.11
37904;BME280;23738;50.422;18.758;2023-07-16T12:09:29;98391.19;;;36.99;36.04
37904;BME280;23738;50.422;18.758;2023-07-16T12:11:59;98390.55;;;36.84;36.14
37904;BME280;23738;50.422;18.758;2023-07-16T12:14:30;98393.79;;;36.60;36.31
37904;BME280;23738;50.422;18.758;2023-07-16T12:16:59;98387.59;;;36.54;36.52
37904;BME280;23738;50.422;18.758;2023-07-16T12:19:29;98385.98;;;36.58;37.00
37904;BME280;23738;50.422;18.758;2023-07-16T12:22:00;98386.14;;;36.69;36.65
37904;BME280;23738;50.422;18.758;2023-07-16T12:24:29;98384.89;;;36.76;36.55
37904;BME280;23738;50.422;18.758;2023-07-16T12:26:58;98388.11;;;36.76;36.10
37904;BME280;23738;50.422;18.758;2023-07-16T12:29:27;98384.58;;;36.69;36.43
37904;BME280;23738;50.422;18.758;2023-07-16T12:31:57;98382.95;;;36.70;35.88
37904;BME280;23738;50.422;18.758;2023-07-16T12:34:28;98380.36;;;36.67;36.22
37904;BME280;23738;50.422;18.758;2023-07-16T12:36:57;98377.12;;;36.71;36.02
37904;BME280;23738;50.422;18.758;2023-07-16T12:39:27;98379.97;;;36.79;35.82
37904;BME280;23738;50.422;18.758;2023-07-16T12:41:56;98384.45;;;36.94;36.16
37904;BME280;23738;50.422;18.758;2023-07-16T12:44:25;98386.89;;;36.94;35.86
37904;BME280;23738;50.422;18.758;2023-07-16T12:46:55;98385.06;;;36.85;35.84
37904;BME280;23738;50.422;18.758;2023-07-16T12:49:24;98384.42;;;36.77;35.88
37904;BME280;23738;50.422;18.758;2023-07-16T12:51:53;98388.17;;;36.75;35.94
37904;BME280;23738;50.422;18.758;2023-07-16T12:54:24;98385.41;;;36.87;36.09
37904;BME280;23738;50.422;18.758;2023-07-16T12:56:54;98380.67;;;37.08;36.11
37904;BME280;23738;50.422;18.758;2023-07-16T12:59:24;98381.86;;;37.23;36.22
37904;BME280;23738;50.422;18.758;2023-07-16T13:01:53;98385.02;;;37.24;35.77
37904;BME280;23738;50.422;18.758;2023-07-16T13:04:23;98389.14;;;37.17;35.66